Cincinnati Northern Kentucky International Airport
KCVG : now visible

Airfield :











YOU CAN JOIN US ON...

 
LOGIN :

Register | Disclaimer

   EN    FR    IT 

 









Legend :    VFR   Marginal VFR   IFR   Intensive IFR   Very Intensive IFR
Visi :
Ceiling :
>= 8 km
>= 3000ft
5 to 8 km
1000 to 3000 ft
1500m to 5 km
500 to 1000 ft
800 to 1500m
200 to 500 ft
< 800m
< 200 ft
Symbols :   Thunderstorms  Fog  Heavy snow  Heavy precipitations  Wind > 20 kt






- Airport Elevation : 896 ft
- IATA code : CVG


KCVG - Cincinnati Northern Kentucky International

CURRENT METAR :
  • 172252Z 10010KT 10SM OVC110 01/M09 A3052 RMK AO2 SLP341 VIRGA SW T00061094

EXPIRED METARs :
  • 172152Z 10013KT 10SM OVC120 01/M09 A3053 RMK AO2 SLP347 VIRGA S-SW T00061089
  • 172052Z 11010KT 10SM OVC120 00/M09 A3058 RMK AO2 SLP364 VIRGA ALQDS T00001094 56024

TAF KCVG
Valid from the 18 at 00:00 until the 19 at 06:00 UTC


172332Z 1800/1906 10010KT P6SM OVC100
FM180700 14007KT P6SM VCSH OVC090 WS020/18040KT
FM181000 16012KT P6SM -RA OVC050 WS020/19040KT
FM181400 19016G24KT 5SM -RA OVC050 WS020/20050KT
FM181700 21017G28KT P6SM VCSH OVC015 WS020/23050KT
FM182000 23017G28KT P6SM OVC015
FM182300 26017G27KT P6SM OVC025



MET'MAP, your aeronautical weather chart ! - Copyright ORBIFLY December 2007 - Disclaimer

ORBIFLY MET'MAP TEAM :

Programming & Development : Alexandra Zaïnal
Concept & original design : Baudouin d'Aumeries
Assistance for programming : Marc-Olivier Méhu
Technical & hardware support : Manuel Goepfert

Contact : metmap@orbifly.com




SOURCES & CREDITS :

   NOAA       Earth
Advisory